Time;durP1;ratioP1;P1;durP2;ratioP2;P2;SDS_P1;SDS_P2;PMS_P1;PMS_P2;Temp;Humidity;BMP_temperature;BMP_pressure;BME280_temperature;BME280_humidity;BME280_pressure;Samples;Min_cycle;Max_cycle;Signal;HPM_P1;HPM_P2
2022/06/28 00:02:22;;;;;;;;;;;;;;;;;;5080580;28;19931;-75
2022/06/28 00:04:48;;;;;;;;;;;;;;;;;;5107442;28;19928;-75
2022/06/28 00:07:14;;;;;;;;;;;;;;;;;;5109539;28;19927;-75
2022/06/28 00:09:40;;;;;;;;;;;;;;;;;;5100984;28;19924;-75
2022/06/28 00:12:06;;;;;;;;;;;;;;;;;;5103168;28;19974;-75
2022/06/28 00:17:17;;;;;;;;;;;;;;;;;;5103169;28;19938;-75
2022/06/28 00:19:43;;;;;;;;;;;;;;;;;;5099934;28;19932;-75
2022/06/28 00:22:09;;;;;;;;;;;;;;;;;;5106407;28;19924;-75
2022/06/28 00:24:35;;;;;;;;;;;;;;;;;;5103690;28;19924;-75
2022/06/28 00:27:01;;;;;;;;;;;;;;;;;;5107268;28;19969;-75
2022/06/28 00:29:27;;;;;;;;;;;;;;;;;;5103513;28;19930;-75
2022/06/28 00:31:52;;;;;;;;;;;;;;;;;;5080969;28;19935;-75
2022/06/28 00:34:18;;;;;;;;;;;;;;;;;;5096974;28;19931;-75
2022/06/28 00:36:44;;;;;;;;;;;;;;;;;;5101687;28;19923;-75
2022/06/28 00:39:10;;;;;;;;;;;;;;;;;;5082761;28;19973;-75
2022/06/28 00:41:36;;;;;;;;;;;;;;;;;;5106409;28;19951;-75
2022/06/28 00:44:02;;;;;;;;;;;;;;;;;;5088117;28;19923;-75
2022/06/28 00:46:29;;;;;;;;;;;;;;;;;;5102318;28;19943;-75
2022/06/28 00:48:55;;;;;;;;;;;;;;;;;;5099711;28;19925;-75
2022/06/28 00:51:21;;;;;;;;;;;;;;;;;;5094697;28;19996;-75
2022/06/28 00:53:47;;;;;;;;;;;;;;;;;;5084109;28;20505;-75
2022/06/28 00:56:13;;;;;;;;;;;;;;;;;;5101704;28;19924;-75
2022/06/28 00:58:39;;;;;;;;;;;;;;;;;;5097791;28;19928;-75
2022/06/28 01:01:04;;;;;;;;;;;;;;;;;;5100984;28;19931;-75
2022/06/28 01:03:30;;;;;;;;;;;;;;;;;;5100065;28;19924;-75
2022/06/28 01:05:56;;;;;;;;;;;;;;;;;;5107206;28;19932;-75
2022/06/28 01:08:22;;;;;;;;;;;;;;;;;;5116052;28;19931;-75
2022/06/28 01:10:48;;;;;;;;;;;;;;;;;;5106245;28;19928;-75
2022/06/28 01:13:14;;;;;;;;;;;;;;;;;;5100270;28;19925;-75
2022/06/28 01:15:41;;;;;;;;;;;;;;;;;;5099841;28;19924;-75
2022/06/28 01:18:07;;;;;;;;;;;;;;;;;;5098426;27;19931;-75
2022/06/28 01:20:33;;;;;;;;;;;;;;;;;;5085500;28;20367;-75
2022/06/28 01:22:59;;;;;;;;;;;;;;;;;;5101375;27;21145;-75
2022/06/28 01:25:25;;;;;;;;;;;;;;;;;;5105875;27;19930;-75
2022/06/28 01:27:51;;;;;;;;;;;;;;;;;;5106542;27;20385;-74
2022/06/28 01:30:16;;;;;;;;;;;;;;;;;;5105517;27;20310;-75
2022/06/28 01:32:42;;;;;;;;;;;;;;;;;;5115480;27;19924;-75
2022/06/28 01:35:08;;;;;;;;;;;;;;;;;;5120201;27;20557;-76
2022/06/28 01:37:34;;;;;;;;;;;;;;;;;;5091447;27;20022;-75
2022/06/28 01:40:00;;;;;;;;;;;;;;;;;;5105272;27;19935;-75
2022/06/28 01:42:26;;;;;;;;;;;;;;;;;;5103467;27;19928;-75
2022/06/28 01:44:52;;;;;;;;;;;;;;;;;;5109215;27;19945;-75
2022/06/28 01:47:18;;;;;;;;;;;;;;;;;;5099516;27;20011;-75
2022/06/28 01:49:44;;;;;;;;;;;;;;;;;;5102466;27;19924;-75
2022/06/28 01:52:10;;;;;;;;;;;;;;;;;;5105686;27;19924;-75
2022/06/28 01:54:36;;;;;;;;;;;;;;;;;;5101304;27;19927;-75
2022/06/28 01:57:02;;;;;;;;;;;;;;;;;;5090835;28;19959;-75
2022/06/28 01:59:28;;;;;;;;;;;;;;;;;;5103588;27;19969;-75
2022/06/28 02:01:54;;;;;;;;;;;;;;;;;;5110017;27;19923;-75
2022/06/28 02:04:20;;;;;;;;;;;;;;;;;;5102354;27;19934;-76
2022/06/28 02:06:46;;;;;;;;;;;;;;;;;;5087775;28;19973;-75
2022/06/28 02:09:12;;;;;;;;;;;;;;;;;;5110451;27;19949;-75
2022/06/28 02:11:38;;;;;;;;;;;;;;;;;;5087695;27;19924;-75
2022/06/28 02:14:04;;;;;;;;;;;;;;;;;;5103703;27;19931;-75
2022/06/28 02:16:30;;;;;;;;;;;;;;;;;;5104481;27;19932;-75
2022/06/28 02:18:56;;;;;;;;;;;;;;;;;;5113915;27;19959;-75
2022/06/28 02:21:22;;;;;;;;;;;;;;;;;;5083151;27;19966;-75
2022/06/28 02:23:48;;;;;;;;;;;;;;;;;;5104628;27;19930;-75
2022/06/28 02:26:14;;;;;;;;;;;;;;;;;;5110460;27;19993;-74
2022/06/28 02:28:40;;;;;;;;;;;;;;;;;;5099310;27;20559;-75
2022/06/28 02:31:06;;;;;;;;;;;;;;;;;;5106696;27;20012;-75
2022/06/28 02:33:32;;;;;;;;;;;;;;;;;;5085842;28;19959;-75
2022/06/28 02:41:27;;;;;;;;;;;;;;;;;;5100661;27;19935;-75
2022/06/28 02:43:53;;;;;;;;;;;;;;;;;;5085511;27;19928;-75
2022/06/28 02:46:19;;;;;;;;;;;;;;;;;;5100809;27;20041;-75
2022/06/28 02:48:45;;;;;;;;;;;;;;;;;;5115993;27;19970;-75
2022/06/28 02:51:11;;;;;;;;;;;;;;;;;;5092169;27;19924;-75
2022/06/28 02:53:37;;;;;;;;;;;;;;;;;;5102747;27;19938;-75
2022/06/28 02:56:02;;;;;;;;;;;;;;;;;;5102031;27;19935;-75
2022/06/28 02:58:28;;;;;;;;;;;;;;;;;;5083223;28;19943;-75
2022/06/28 03:00:54;;;;;;;;;;;;;;;;;;5103569;27;19984;-75
2022/06/28 03:03:20;;;;;;;;;;;;;;;;;;5107203;27;19924;-75
2022/06/28 03:05:46;;;;;;;;;;;;;;;;;;5084526;28;19924;-75
2022/06/28 03:08:12;;;;;;;;;;;;;;;;;;5103736;27;20015;-75
2022/06/28 03:10:38;;;;;;;;;;;;;;;;;;5105804;27;19977;-75
2022/06/28 03:13:04;;;;;;;;;;;;;;;;;;5085875;28;19931;-74
2022/06/28 03:15:30;;;;;;;;;;;;;;;;;;5105498;28;19935;-75
2022/06/28 03:17:56;;;;;;;;;;;;;;;;;;5081554;28;19928;-74
2022/06/28 03:20:22;;;;;;;;;;;;;;;;;;5087143;28;19934;-75
2022/06/28 03:22:48;;;;;;;;;;;;;;;;;;5084818;28;19932;-74
2022/06/28 03:25:14;;;;;;;;;;;;;;;;;;5093957;27;19928;-75
2022/06/28 03:27:39;;;;;;;;;;;;;;;;;;5102477;28;19971;-75
2022/06/28 03:30:05;;;;;;;;;;;;;;;;;;5105668;27;19932;-75
2022/06/28 03:32:31;;;;;;;;;;;;;;;;;;5100759;27;19928;-75
2022/06/28 03:34:57;;;;;;;;;;;;;;;;;;5085956;28;20370;-75
2022/06/28 03:37:23;;;;;;;;;;;;;;;;;;5085498;28;19927;-75
2022/06/28 03:39:49;;;;;;;;;;;;;;;;;;5086526;28;19966;-75
2022/06/28 03:42:15;;;;;;;;;;;;;;;;;;5100115;27;19932;-75
2022/06/28 03:44:41;;;;;;;;;;;;;;;;;;5106856;27;19959;-75
2022/06/28 03:47:07;;;;;;;;;;;;;;;;;;5102914;27;20014;-75
2022/06/28 03:49:33;;;;;;;;;;;;;;;;;;5100891;28;19935;-75
2022/06/28 03:51:59;;;;;;;;;;;;;;;;;;5101169;28;20294;-75
2022/06/28 03:54:25;;;;;;;;;;;;;;;;;;5085903;28;19923;-75
2022/06/28 03:56:51;;;;;;;;;;;;;;;;;;5103233;28;19940;-75
2022/06/28 03:59:17;;;;;;;;;;;;;;;;;;5101748;27;20263;-76
2022/06/28 04:01:43;;;;;;;;;;;;;;;;;;5102974;28;20328;-75
2022/06/28 04:04:09;;;;;;;;;;;;;;;;;;5103297;28;20282;-75
2022/06/28 04:06:35;;;;;;;;;;;;;;;;;;5109839;28;19932;-75
2022/06/28 04:09:01;;;;;;;;;;;;;;;;;;5084563;28;19963;-75
2022/06/28 04:11:26;;;;;;;;;;;;;;;;;;5101181;28;19923;-75
2022/06/28 04:13:52;;;;;;;;;;;;;;;;;;5102978;28;20332;-75
2022/06/28 04:16:18;;;;;;;;;;;;;;;;;;5103480;28;20263;-75
2022/06/28 04:18:45;;;;;;;;;;;;;;;;;;5110097;28;20371;-75
2022/06/28 04:21:11;;;;;;;;;;;;;;;;;;5101035;28;19928;-75
2022/06/28 04:23:37;;;;;;;;;;;;;;;;;;5098031;28;19924;-75
2022/06/28 04:26:03;;;;;;;;;;;;;;;;;;5107038;28;20290;-75
2022/06/28 04:28:29;;;;;;;;;;;;;;;;;;5100498;28;21349;-75
2022/06/28 04:30:55;;;;;;;;;;;;;;;;;;5099039;28;19930;-75
2022/06/28 04:33:21;;;;;;;;;;;;;;;;;;5106325;28;19931;-75
2022/06/28 04:35:47;;;;;;;;;;;;;;;;;;5075561;28;19928;-75
2022/06/28 04:38:13;;;;;;;;;;;;;;;;;;5100222;28;20326;-75
2022/06/28 04:40:39;;;;;;;;;;;;;;;;;;5094181;28;19947;-76
2022/06/28 04:43:05;;;;;;;;;;;;;;;;;;5120903;28;20041;-75
2022/06/28 04:45:31;;;;;;;;;;;;;;;;;;5082959;28;19932;-75
2022/06/28 04:47:56;;;;;;;;;;;;;;;;;;5095528;28;20006;-75
2022/06/28 04:50:22;;;;;;;;;;;;;;;;;;5080112;28;20049;-75
2022/06/28 04:52:49;;;;;;;;;;;;;;;;;;5083831;28;19931;-76
2022/06/28 04:55:15;;;;;;;;;;;;;;;;;;5102643;27;19923;-75
2022/06/28 04:57:41;;;;;;;;;;;;;;;;;;5103077;28;20312;-75
2022/06/28 05:00:07;;;;;;;;;;;;;;;;;;5104751;27;19931;-75
2022/06/28 05:02:36;;;;;;;;;;;;;;;;;;5107416;27;20358;-77
2022/06/28 05:05:02;;;;;;;;;;;;;;;;;;5095942;28;19935;-79
2022/06/28 05:07:28;;;;;;;;;;;;;;;;;;5099373;28;19924;-79
2022/06/28 05:09:54;;;;;;;;;;;;;;;;;;5083369;28;20019;-79
2022/06/28 05:12:20;;;;;;;;;;;;;;;;;;5116505;27;19924;-80
2022/06/28 05:14:46;;;;;;;;;;;;;;;;;;5112629;28;19924;-79
2022/06/28 05:17:11;;;;;;;;;;;;;;;;;;5102764;28;19938;-77
2022/06/28 05:19:37;;;;;;;;;;;;;;;;;;5081473;28;19934;-76
2022/06/28 05:22:03;;;;;;;;;;;;;;;;;;5096958;27;19970;-79
2022/06/28 05:24:29;;;;;;;;;;;;;;;;;;5105792;28;19924;-78
2022/06/28 05:26:55;;;;;;;;;;;;;;;;;;5082812;28;19977;-78
2022/06/28 05:29:21;;;;;;;;;;;;;;;;;;5087711;28;19927;-78
2022/06/28 05:31:47;;;;;;;;;;;;;;;;;;5084854;27;19924;-77
2022/06/28 05:34:13;;;;;;;;;;;;;;;;;;5087826;28;20315;-77
2022/06/28 05:36:40;;;;;;;;;;;;;;;;;;5099266;27;19932;-78
2022/06/28 05:39:06;;;;;;;;;;;;;;;;;;5102261;27;19932;-78
2022/06/28 05:41:32;;;;;;;;;;;;;;;;;;5085406;28;19931;-78
2022/06/28 05:43:58;;;;;;;;;;;;;;;;;;5078034;28;20339;-76
2022/06/28 05:46:25;;;;;;;;;;;;;;;;;;5085451;28;19974;-77
2022/06/28 05:48:51;;;;;;;;;;;;;;;;;;5113031;27;19933;-77
2022/06/28 05:51:17;;;;;;;;;;;;;;;;;;5096879;28;19954;-77
2022/06/28 05:53:43;;;;;;;;;;;;;;;;;;5106906;28;19931;-77
2022/06/28 05:56:09;;;;;;;;;;;;;;;;;;5080891;28;19928;-78
2022/06/28 05:58:35;;;;;;;;;;;;;;;;;;5081958;28;19975;-78
2022/06/28 06:01:01;;;;;;;;;;;;;;;;;;5116689;27;19931;-78
2022/06/28 06:03:27;;;;;;;;;;;;;;;;;;5117654;27;19969;-79
2022/06/28 06:05:53;;;;;;;;;;;;;;;;;;5083125;28;19931;-78
2022/06/28 06:08:19;;;;;;;;;;;;;;;;;;5079757;28;19928;-77
2022/06/28 06:10:45;;;;;;;;;;;;;;;;;;5085052;28;20309;-78
2022/06/28 06:13:11;;;;;;;;;;;;;;;;;;5095235;28;19938;-78
2022/06/28 06:15:36;;;;;;;;;;;;;;;;;;5078021;28;19924;-78
2022/06/28 06:18:02;;;;;;;;;;;;;;;;;;5095268;28;20325;-78
2022/06/28 06:20:28;;;;;;;;;;;;;;;;;;5091235;28;20316;-78
2022/06/28 06:22:54;;;;;;;;;;;;;;;;;;5106702;27;20363;-78
2022/06/28 06:25:20;;;;;;;;;;;;;;;;;;5099692;28;20290;-78
2022/06/28 06:27:46;;;;;;;;;;;;;;;;;;5111023;27;21635;-78
2022/06/28 06:30:12;;;;;;;;;;;;;;;;;;5096337;28;20340;-78
2022/06/28 06:32:38;;;;;;;;;;;;;;;;;;5094747;27;19928;-79
2022/06/28 06:35:04;;;;;;;;;;;;;;;;;;5085635;28;20027;-79
2022/06/28 06:37:30;;;;;;;;;;;;;;;;;;5079048;28;19934;-79
2022/06/28 06:39:56;;;;;;;;;;;;;;;;;;5094623;28;20011;-79
2022/06/28 06:42:22;;;;;;;;;;;;;;;;;;5080544;28;21183;-79
2022/06/28 06:44:48;;;;;;;;;;;;;;;;;;5114374;27;19931;-78
2022/06/28 06:47:14;;;;;;;;;;;;;;;;;;5098025;28;20287;-79
2022/06/28 06:49:40;;;;;;;;;;;;;;;;;;5082229;28;19987;-80
2022/06/28 06:52:06;;;;;;;;;;;;;;;;;;5103073;28;19927;-79
2022/06/28 06:54:32;;;;;;;;;;;;;;;;;;5090970;28;20610;-79
2022/06/28 06:56:57;;;;;;;;;;;;;;;;;;5076768;27;20060;-80
2022/06/28 06:59:23;;;;;;;;;;;;;;;;;;5109792;27;19928;-81
2022/06/28 07:01:49;;;;;;;;;;;;;;;;;;5110390;27;20056;-81
2022/06/28 07:04:16;;;;;;;;;;;;;;;;;;5080804;28;19930;-81
2022/06/28 07:06:42;;;;;;;;;;;;;;;;;;5120923;27;19930;-85
2022/06/28 07:09:08;;;;;;;;;;;;;;;;;;5078451;28;19924;-83
2022/06/28 07:11:33;;;;;;;;;;;;;;;;;;5076850;28;19927;-80
2022/06/28 07:14:00;;;;;;;;;;;;;;;;;;5074820;28;19924;-83
2022/06/28 07:16:26;;;;;;;;;;;;;;;;;;5081450;28;19946;-83
2022/06/28 07:18:52;;;;;;;;;;;;;;;;;;5082642;27;19927;-81
2022/06/28 07:21:18;;;;;;;;;;;;;;;;;;5075851;28;19931;-81
2022/06/28 07:23:44;;;;;;;;;;;;;;;;;;5075908;28;19924;-82
2022/06/28 07:26:10;;;;;;;;;;;;;;;;;;5083479;28;19928;-81
2022/06/28 07:28:36;;;;;;;;;;;;;;;;;;5113839;27;20333;-82
2022/06/28 07:31:01;;;;;;;;;;;;;;;;;;5117590;27;19932;-85
2022/06/28 07:33:27;;;;;;;;;;;;;;;;;;5078577;28;19924;-84
2022/06/28 07:35:53;;;;;;;;;;;;;;;;;;5083024;28;20076;-80
2022/06/28 07:38:19;;;;;;;;;;;;;;;;;;5083582;27;19946;-80
2022/06/28 07:40:45;;;;;;;;;;;;;;;;;;5107900;27;20034;-81
2022/06/28 07:43:11;;;;;;;;;;;;;;;;;;5107424;27;20366;-81
2022/06/28 07:45:40;;;;;;;;;;;;;;;;;;5094115;28;21316;-83
2022/06/28 07:48:05;;;;;;;;;;;;;;;;;;5081660;28;19959;-83
2022/06/28 07:53:16;;;;;;;;;;;;;;;;;;5123410;27;20313;-87
2022/06/28 07:55:42;;;;;;;;;;;;;;;;;;5081223;28;19932;-85
2022/06/28 07:58:08;;;;;;;;;;;;;;;;;;5083216;28;19997;-90
2022/06/28 08:00:34;;;;;;;;;;;;;;;;;;5097097;28;19928;-84
2022/06/28 08:03:00;;;;;;;;;;;;;;;;;;5117167;27;20298;-88
2022/06/28 08:05:26;;;;;;;;;;;;;;;;;;5072679;28;19924;-91
2022/06/28 08:07:52;;;;;;;;;;;;;;;;;;5073308;28;20070;-89
2022/06/28 08:10:18;;;;;;;;;;;;;;;;;;5082643;28;20011;-88
2022/06/28 08:12:44;;;;;;;;;;;;;;;;;;5085456;28;20426;-89
2022/06/28 08:15:10;;;;;;;;;;;;;;;;;;5096003;28;20053;-84
2022/06/28 08:17:36;;;;;;;;;;;;;;;;;;5104599;28;20394;-93
2022/06/28 08:20:02;;;;;;;;;;;;;;;;;;5083595;28;20021;-84
2022/06/28 08:22:28;;;;;;;;;;;;;;;;;;5088547;28;19934;-90
2022/06/28 08:24:54;;;;;;;;;;;;;;;;;;5119331;28;20541;-90
2022/06/28 08:27:20;;;;;;;;;;;;;;;;;;5092237;28;20010;-88
2022/06/28 08:29:47;;;;;;;;;;;;;;;;;;5087611;28;20357;-87
2022/06/28 08:32:13;;;;;;;;;;;;;;;;;;5096793;27;19924;-90
2022/06/28 08:34:39;;;;;;;;;;;;;;;;;;5087382;28;19935;-93
2022/06/28 08:37:05;;;;;;;;;;;;;;;;;;5084788;28;19924;-94
2022/06/28 08:39:31;;;;;;;;;;;;;;;;;;5085690;28;19959;-91
2022/06/28 08:41:56;;;;;;;;;;;;;;;;;;5120662;27;20990;-91
2022/06/28 08:44:22;;;;;;;;;;;;;;;;;;5081450;28;20331;-80
2022/06/28 08:46:48;;;;;;;;;;;;;;;;;;5098553;27;20349;-80
2022/06/28 08:49:14;;;;;;;;;;;;;;;;;;5081806;28;20390;-80
2022/06/28 08:51:40;;;;;;;;;;;;;;;;;;5066876;28;20843;-80
2022/06/28 08:54:06;;;;;;;;;;;;;;;;;;5107153;27;19932;-81
2022/06/28 08:56:32;;;;;;;;;;;;;;;;;;5074446;28;19923;-81
2022/06/28 08:58:58;;;;;;;;;;;;;;;;;;5080504;28;19927;-80
2022/06/28 09:01:24;;;;;;;;;;;;;;;;;;5098198;28;20015;-80
2022/06/28 09:03:50;;;;;;;;;;;;;;;;;;5087442;28;19985;-81
2022/06/28 09:06:17;;;;;;;;;;;;;;;;;;5084758;28;20014;-82
2022/06/28 09:08:42;;;;;;;;;;;;;;;;;;5078970;27;20449;-82
2022/06/28 09:11:08;;;;;;;;;;;;;;;;;;5098963;27;19966;-82
2022/06/28 09:13:34;;;;;;;;;;;;;;;;;;5088543;28;19939;-82
2022/06/28 09:16:00;;;;;;;;;;;;;;;;;;5117947;27;19931;-82
2022/06/28 09:18:26;;;;;;;;;;;;;;;;;;5084139;27;19932;-78
2022/06/28 09:20:52;;;;;;;;;;;;;;;;;;5081829;28;20020;-81
2022/06/28 09:23:18;;;;;;;;;;;;;;;;;;5121509;27;19970;-81
2022/06/28 09:25:44;;;;;;;;;;;;;;;;;;5081823;28;19941;-78
2022/06/28 09:28:10;;;;;;;;;;;;;;;;;;5098846;28;19966;-81
2022/06/28 09:30:37;;;;;;;;;;;;;;;;;;5100815;28;20347;-80
2022/06/28 09:33:03;;;;;;;;;;;;;;;;;;5095699;28;20378;-82
2022/06/28 09:35:28;;;;;;;;;;;;;;;;;;5105274;28;19931;-81
2022/06/28 09:37:54;;;;;;;;;;;;;;;;;;5082530;28;20371;-81
2022/06/28 09:40:20;;;;;;;;;;;;;;;;;;5079792;28;19924;-80
2022/06/28 09:42:46;;;;;;;;;;;;;;;;;;5086486;28;20382;-78
2022/06/28 09:45:12;;;;;;;;;;;;;;;;;;5076202;28;19924;-81
2022/06/28 09:47:38;;;;;;;;;;;;;;;;;;5091956;28;19924;-81
2022/06/28 09:50:04;;;;;;;;;;;;;;;;;;5084318;28;19932;-82
2022/06/28 09:52:30;;;;;;;;;;;;;;;;;;5077577;28;20012;-82
2022/06/28 09:54:56;;;;;;;;;;;;;;;;;;5092163;28;19977;-84
2022/06/28 09:57:22;;;;;;;;;;;;;;;;;;5100456;28;19924;-81
2022/06/28 09:59:48;;;;;;;;;;;;;;;;;;5091363;28;19963;-80
2022/06/28 10:02:14;;;;;;;;;;;;;;;;;;5098479;28;19983;-81
2022/06/28 10:04:40;;;;;;;;;;;;;;;;;;5083156;28;19980;-82
2022/06/28 10:07:06;;;;;;;;;;;;;;;;;;5080403;28;20028;-82
2022/06/28 10:09:32;;;;;;;;;;;;;;;;;;5078071;28;20552;-81
2022/06/28 10:15:01;;;;;;;;;;;;;;;;;;5121855;27;19924;-78
2022/06/28 10:17:29;;;;;;;;;;;;;;;;;;5087337;28;20012;-79
2022/06/28 10:19:55;;;;;;;;;;;;;;;;;;5097635;28;19928;-82
2022/06/28 10:22:21;;;;;;;;;;;;;;;;;;5085932;28;19928;-85
2022/06/28 10:24:46;;;;;;;;;;;;;;;;;;5089069;28;19923;-84
2022/06/28 10:27:12;;;;;;;;;;;;;;;;;;5085784;28;19932;-81
2022/06/28 10:29:38;;;;;;;;;;;;;;;;;;5078363;28;20405;-83
2022/06/28 10:32:04;;;;;;;;;;;;;;;;;;5086354;28;19928;-84
2022/06/28 10:34:30;;;;;;;;;;;;;;;;;;5104972;28;19969;-83
2022/06/28 10:36:56;;;;;;;;;;;;;;;;;;5101960;28;19932;-84
2022/06/28 10:39:22;;;;;;;;;;;;;;;;;;5094536;27;19943;-87
2022/06/28 10:41:48;;;;;;;;;;;;;;;;;;5081598;28;19924;-84
2022/06/28 10:44:15;;;;;;;;;;;;;;;;;;5080320;28;20309;-84
2022/06/28 10:46:41;;;;;;;;;;;;;;;;;;5080969;28;19924;-83
2022/06/28 10:49:07;;;;;;;;;;;;;;;;;;5079181;28;19930;-82
2022/06/28 10:51:33;;;;;;;;;;;;;;;;;;5117001;27;19932;-82
2022/06/28 10:54:06;;;;;;;;;;;;;;;;;;5080476;28;19935;-85
2022/06/28 10:56:32;;;;;;;;;;;;;;;;;;5096531;28;19924;-83
2022/06/28 10:58:58;;;;;;;;;;;;;;;;;;5114151;27;20278;-83
2022/06/28 11:01:24;;;;;;;;;;;;;;;;;;5098106;28;19928;-86
2022/06/28 11:03:50;;;;;;;;;;;;;;;;;;5094139;27;19951;-85
2022/06/28 11:06:16;;;;;;;;;;;;;;;;;;5080887;27;19931;-84
2022/06/28 11:08:42;;;;;;;;;;;;;;;;;;5066590;28;19931;-84
2022/06/28 11:11:08;;;;;;;;;;;;;;;;;;5079175;28;19963;-83
2022/06/28 11:13:34;;;;;;;;;;;;;;;;;;5094266;28;20415;-82
2022/06/28 11:16:00;;;;;;;;;;;;;;;;;;5100000;28;19932;-80
2022/06/28 11:18:26;;;;;;;;;;;;;;;;;;5107404;27;20263;-81
2022/06/28 11:20:52;;;;;;;;;;;;;;;;;;5094567;28;19946;-80
2022/06/28 11:23:18;;;;;;;;;;;;;;;;;;5087654;28;19935;-79
2022/06/28 11:28:29;;;;;;;;;;;;;;;;;;5087937;28;19972;-81
2022/06/28 11:30:55;;;;;;;;;;;;;;;;;;5086940;28;19941;-78
2022/06/28 11:33:21;;;;;;;;;;;;;;;;;;5093378;28;19924;-80
2022/06/28 11:35:47;;;;;;;;;;;;;;;;;;5110241;28;19923;-81
2022/06/28 11:38:15;;;;;;;;;;;;;;;;;;5079589;28;19977;-79
2022/06/28 11:40:41;;;;;;;;;;;;;;;;;;5096066;28;19932;-79
2022/06/28 11:43:08;;;;;;;;;;;;;;;;;;5097959;27;19949;-87
2022/06/28 11:45:34;;;;;;;;;;;;;;;;;;5080869;28;19924;-86
2022/06/28 11:47:59;;;;;;;;;;;;;;;;;;5114901;27;19924;-87
2022/06/28 11:50:25;;;;;;;;;;;;;;;;;;5082810;28;19932;-83
2022/06/28 11:52:51;;;;;;;;;;;;;;;;;;5119054;27;19939;-88
2022/06/28 11:55:17;;;;;;;;;;;;;;;;;;5098225;28;20018;-88
2022/06/28 11:57:44;;;;;;;;;;;;;;;;;;5091412;28;19939;-87
2022/06/28 12:00:10;;;;;;;;;;;;;;;;;;5080835;28;20286;-84
2022/06/28 12:02:36;;;;;;;;;;;;;;;;;;5071110;28;20026;-85
2022/06/28 12:05:02;;;;;;;;;;;;;;;;;;5102146;27;19924;-85
2022/06/28 12:07:28;;;;;;;;;;;;;;;;;;5089799;28;19927;-83
2022/06/28 12:09:54;;;;;;;;;;;;;;;;;;5063222;28;20379;-89
2022/06/28 12:12:20;;;;;;;;;;;;;;;;;;5091311;28;20283;-86
2022/06/28 12:14:46;;;;;;;;;;;;;;;;;;5072564;28;20282;-85
2022/06/28 12:17:12;;;;;;;;;;;;;;;;;;5106654;28;20252;-88
2022/06/28 12:19:38;;;;;;;;;;;;;;;;;;5078196;28;20525;-87
2022/06/28 12:22:04;;;;;;;;;;;;;;;;;;5076973;28;19958;-87
2022/06/28 12:24:30;;;;;;;;;;;;;;;;;;5083939;28;19932;-87
2022/06/28 12:26:56;;;;;;;;;;;;;;;;;;5078126;28;20370;-88
2022/06/28 12:29:22;;;;;;;;;;;;;;;;;;5074861;28;20424;-85
2022/06/28 12:31:48;;;;;;;;;;;;;;;;;;5081789;28;19980;-85
2022/06/28 12:34:15;;;;;;;;;;;;;;;;;;5085108;28;20065;-83
2022/06/28 12:36:41;;;;;;;;;;;;;;;;;;5076048;28;19927;-87
2022/06/28 12:39:07;;;;;;;;;;;;;;;;;;5109518;28;19938;-87
2022/06/28 12:41:33;;;;;;;;;;;;;;;;;;5112103;28;19963;-89
2022/06/28 12:43:59;;;;;;;;;;;;;;;;;;5094229;28;20017;-91
2022/06/28 12:46:25;;;;;;;;;;;;;;;;;;5101345;28;19927;-89
2022/06/28 12:48:50;;;;;;;;;;;;;;;;;;5102876;28;19971;-91
2022/06/28 12:51:16;;;;;;;;;;;;;;;;;;5091202;28;19928;-86
2022/06/28 12:53:42;;;;;;;;;;;;;;;;;;5086883;28;20402;-83
2022/06/28 12:56:08;;;;;;;;;;;;;;;;;;5099471;28;19930;-92
2022/06/28 12:58:34;;;;;;;;;;;;;;;;;;5114737;28;20017;-90
2022/06/28 13:01:00;;;;;;;;;;;;;;;;;;5099481;28;20011;-85
2022/06/28 13:03:26;;;;;;;;;;;;;;;;;;5095590;28;19994;-85
2022/06/28 13:05:52;;;;;;;;;;;;;;;;;;5085729;28;19924;-89
2022/06/28 13:08:18;;;;;;;;;;;;;;;;;;5093346;28;19981;-86
2022/06/28 13:10:44;;;;;;;;;;;;;;;;;;5118450;28;19931;-88
2022/06/28 13:13:12;;;;;;;;;;;;;;;;;;5092691;27;20416;-89
2022/06/28 13:15:38;;;;;;;;;;;;;;;;;;5084338;27;20366;-83
2022/06/28 13:18:04;;;;;;;;;;;;;;;;;;5088285;28;19924;-81
2022/06/28 13:20:30;;;;;;;;;;;;;;;;;;5098231;28;20363;-82
2022/06/28 13:22:56;;;;;;;;;;;;;;;;;;5110367;27;19972;-80
2022/06/28 13:25:22;;;;;;;;;;;;;;;;;;5077431;28;20131;-80
2022/06/28 13:27:48;;;;;;;;;;;;;;;;;;5107765;27;19924;-80
2022/06/28 13:30:14;;;;;;;;;;;;;;;;;;5094934;28;20401;-81
2022/06/28 13:32:39;;;;;;;;;;;;;;;;;;5098248;28;19935;-80
2022/06/28 13:35:05;;;;;;;;;;;;;;;;;;5105102;27;20386;-82
2022/06/28 13:37:31;;;;;;;;;;;;;;;;;;5099199;28;20371;-82
2022/06/28 13:39:57;;;;;;;;;;;;;;;;;;5095569;28;20434;-82
2022/06/28 13:42:23;;;;;;;;;;;;;;;;;;5080790;28;20375;-81
2022/06/28 13:44:49;;;;;;;;;;;;;;;;;;5085715;28;20314;-78
2022/06/28 13:47:16;;;;;;;;;;;;;;;;;;5097483;27;20276;-78
2022/06/28 13:49:41;;;;;;;;;;;;;;;;;;5109556;27;19928;-78
2022/06/28 13:52:08;;;;;;;;;;;;;;;;;;5095928;28;19930;-79
2022/06/28 13:54:34;;;;;;;;;;;;;;;;;;5076608;28;19924;-79
2022/06/28 13:57:00;;;;;;;;;;;;;;;;;;5093985;27;19977;-79
2022/06/28 13:59:26;;;;;;;;;;;;;;;;;;5083215;28;19934;-82
2022/06/28 14:01:52;;;;;;;;;;;;;;;;;;5119305;27;20538;-83
2022/06/28 14:04:18;;;;;;;;;;;;;;;;;;5088463;28;20359;-83
2022/06/28 14:06:44;;;;;;;;;;;;;;;;;;5101951;28;19923;-83
2022/06/28 14:09:10;;;;;;;;;;;;;;;;;;5094161;27;19923;-84
2022/06/28 14:11:35;;;;;;;;;;;;;;;;;;5088482;28;19963;-83
2022/06/28 14:14:01;;;;;;;;;;;;;;;;;;5083710;28;19924;-82
2022/06/28 14:16:27;;;;;;;;;;;;;;;;;;5075293;28;19978;-83
2022/06/28 14:18:53;;;;;;;;;;;;;;;;;;5101479;27;19924;-83
2022/06/28 14:21:19;;;;;;;;;;;;;;;;;;5080632;28;19924;-81
2022/06/28 14:23:45;;;;;;;;;;;;;;;;;;5115181;27;19955;-80
2022/06/28 14:26:11;;;;;;;;;;;;;;;;;;5087819;28;19974;-80
2022/06/28 14:28:37;;;;;;;;;;;;;;;;;;5096153;27;19943;-81
2022/06/28 14:31:04;;;;;;;;;;;;;;;;;;5091227;28;19928;-80
2022/06/28 14:33:30;;;;;;;;;;;;;;;;;;5110618;28;19924;-86
2022/06/28 14:35:56;;;;;;;;;;;;;;;;;;5089869;28;19924;-81
2022/06/28 14:38:22;;;;;;;;;;;;;;;;;;5113233;27;20011;-79
2022/06/28 14:40:48;;;;;;;;;;;;;;;;;;5091177;27;19993;-84
2022/06/28 14:43:14;;;;;;;;;;;;;;;;;;5075038;28;19928;-80
2022/06/28 14:45:40;;;;;;;;;;;;;;;;;;5081002;28;20343;-79
2022/06/28 14:48:06;;;;;;;;;;;;;;;;;;5075319;28;20019;-79
2022/06/28 14:50:32;;;;;;;;;;;;;;;;;;5096475;28;19975;-80
2022/06/28 14:52:58;;;;;;;;;;;;;;;;;;5090592;28;19943;-78
2022/06/28 14:55:24;;;;;;;;;;;;;;;;;;5084887;28;19931;-80
2022/06/28 14:57:50;;;;;;;;;;;;;;;;;;5074128;28;19935;-79
2022/06/28 15:00:16;;;;;;;;;;;;;;;;;;5091337;28;19924;-83
2022/06/28 15:02:42;;;;;;;;;;;;;;;;;;5087637;28;20359;-83
2022/06/28 15:05:08;;;;;;;;;;;;;;;;;;5089346;28;19931;-86
2022/06/28 15:07:34;;;;;;;;;;;;;;;;;;5088440;28;19924;-83
2022/06/28 15:10:00;;;;;;;;;;;;;;;;;;5072107;28;19924;-82
2022/06/28 15:12:26;;;;;;;;;;;;;;;;;;5094380;28;19928;-82
2022/06/28 15:14:52;;;;;;;;;;;;;;;;;;5076055;28;19956;-82
2022/06/28 15:17:18;;;;;;;;;;;;;;;;;;5087914;28;20356;-80
2022/06/28 15:19:44;;;;;;;;;;;;;;;;;;5086942;28;19935;-80
2022/06/28 15:33:09;;;;;;;;;;;;;;;;;;5077438;28;20033;-80
2022/06/28 15:35:35;;;;;;;;;;;;;;;;;;5076445;28;19940;-80
2022/06/28 15:38:01;;;;;;;;;;;;;;;;;;5076777;28;20355;-84
2022/06/28 15:40:27;;;;;;;;;;;;;;;;;;5082999;28;20046;-81
2022/06/28 15:42:53;;;;;;;;;;;;;;;;;;5080880;28;19924;-79
2022/06/28 15:45:19;;;;;;;;;;;;;;;;;;5074541;28;19924;-76
2022/06/28 15:47:45;;;;;;;;;;;;;;;;;;5075238;28;19939;-81
2022/06/28 15:50:11;;;;;;;;;;;;;;;;;;5076271;28;19939;-80
2022/06/28 15:52:37;;;;;;;;;;;;;;;;;;5079372;28;19925;-81
2022/06/28 15:55:03;;;;;;;;;;;;;;;;;;5081253;28;19932;-80
2022/06/28 15:57:29;;;;;;;;;;;;;;;;;;5080618;28;20030;-80
2022/06/28 15:59:55;;;;;;;;;;;;;;;;;;5077336;28;19928;-85
2022/06/28 16:02:21;;;;;;;;;;;;;;;;;;5072453;28;19927;-83
2022/06/28 16:04:47;;;;;;;;;;;;;;;;;;5075946;28;19939;-81
2022/06/28 16:07:14;;;;;;;;;;;;;;;;;;5052720;28;20348;-77
2022/06/28 16:09:40;;;;;;;;;;;;;;;;;;5078900;28;20298;-80
2022/06/28 16:14:51;;;;;;;;;;;;;;;;;;5076574;28;19932;-75
2022/06/28 16:17:17;;;;;;;;;;;;;;;;;;5093099;28;19928;-77
2022/06/28 16:19:43;;;;;;;;;;;;;;;;;;5076505;28;19946;-76
2022/06/28 16:22:09;;;;;;;;;;;;;;;;;;5080361;28;19932;-74
2022/06/28 16:24:35;;;;;;;;;;;;;;;;;;5077171;28;19954;-81
2022/06/28 16:27:01;;;;;;;;;;;;;;;;;;5082190;28;20081;-80
2022/06/28 16:29:26;;;;;;;;;;;;;;;;;;5081335;28;20175;-79
2022/06/28 16:31:52;;;;;;;;;;;;;;;;;;5075500;28;20047;-92
2022/06/28 16:34:18;;;;;;;;;;;;;;;;;;5108380;28;19936;-83
2022/06/28 16:36:44;;;;;;;;;;;;;;;;;;5078061;28;20279;-80
2022/06/28 16:39:10;;;;;;;;;;;;;;;;;;5074573;28;20358;-85
2022/06/28 16:41:36;;;;;;;;;;;;;;;;;;5083432;28;19924;-80
2022/06/28 16:44:02;;;;;;;;;;;;;;;;;;5053899;28;19925;-87
2022/06/28 16:46:28;;;;;;;;;;;;;;;;;;5079453;28;19924;-77
2022/06/28 16:48:54;;;;;;;;;;;;;;;;;;5085471;28;19927;-78
2022/06/28 16:51:20;;;;;;;;;;;;;;;;;;5084712;28;19925;-79
2022/06/28 16:53:46;;;;;;;;;;;;;;;;;;5083629;28;19924;-79
2022/06/28 16:56:12;;;;;;;;;;;;;;;;;;5081918;28;19975;-80
2022/06/28 16:58:38;;;;;;;;;;;;;;;;;;5087837;28;19928;-80
2022/06/28 17:01:04;;;;;;;;;;;;;;;;;;5082619;28;19998;-79
2022/06/28 17:03:30;;;;;;;;;;;;;;;;;;5080038;28;19947;-77
2022/06/28 17:05:56;;;;;;;;;;;;;;;;;;5083572;28;19924;-78
2022/06/28 17:08:22;;;;;;;;;;;;;;;;;;5087635;28;20004;-77